sensor_id;sensor_type;location;lat;lon;timestamp;P1;durP1;ratioP1;P2;durP2;ratioP2
8104;SDS011;4095;48.942;9.104;2023-09-07T00:00:48;6.27;;;4.80;;
8104;SDS011;4095;48.942;9.104;2023-09-07T00:03:14;6.40;;;5.30;;
8104;SDS011;4095;48.942;9.104;2023-09-07T00:05:40;8.07;;;5.23;;
8104;SDS011;4095;48.942;9.104;2023-09-07T00:08:06;5.30;;;4.80;;
8104;SDS011;4095;48.942;9.104;2023-09-07T00:10:34;6.20;;;5.33;;
8104;SDS011;4095;48.942;9.104;2023-09-07T00:13:00;5.87;;;5.13;;
8104;SDS011;4095;48.942;9.104;2023-09-07T00:15:29;5.43;;;4.93;;
8104;SDS011;4095;48.942;9.104;2023-09-07T00:18:00;5.87;;;5.23;;
8104;SDS011;4095;48.942;9.104;2023-09-07T00:20:25;6.97;;;5.70;;
8104;SDS011;4095;48.942;9.104;2023-09-07T00:22:51;5.93;;;5.30;;
8104;SDS011;4095;48.942;9.104;2023-09-07T00:25:16;8.77;;;5.50;;
8104;SDS011;4095;48.942;9.104;2023-09-07T00:27:42;6.27;;;5.30;;
8104;SDS011;4095;48.942;9.104;2023-09-07T00:30:07;6.43;;;5.10;;
8104;SDS011;4095;48.942;9.104;2023-09-07T00:32:35;5.50;;;5.00;;
8104;SDS011;4095;48.942;9.104;2023-09-07T00:35:02;4.90;;;4.47;;
8104;SDS011;4095;48.942;9.104;2023-09-07T00:37:28;5.77;;;4.57;;
8104;SDS011;4095;48.942;9.104;2023-09-07T00:39:53;5.40;;;4.90;;
8104;SDS011;4095;48.942;9.104;2023-09-07T00:42:19;5.63;;;4.40;;
8104;SDS011;4095;48.942;9.104;2023-09-07T00:44:44;5.43;;;4.30;;
8104;SDS011;4095;48.942;9.104;2023-09-07T00:47:10;5.60;;;5.03;;
8104;SDS011;4095;48.942;9.104;2023-09-07T00:49:36;6.20;;;5.43;;
8104;SDS011;4095;48.942;9.104;2023-09-07T00:52:03;5.60;;;5.10;;
8104;SDS011;4095;48.942;9.104;2023-09-07T00:54:30;5.73;;;5.23;;
8104;SDS011;4095;48.942;9.104;2023-09-07T00:56:55;5.70;;;5.13;;
8104;SDS011;4095;48.942;9.104;2023-09-07T00:59:21;6.73;;;5.27;;
8104;SDS011;4095;48.942;9.104;2023-09-07T01:01:47;7.40;;;5.70;;
8104;SDS011;4095;48.942;9.104;2023-09-07T01:04:14;6.87;;;5.70;;
8104;SDS011;4095;48.942;9.104;2023-09-07T01:06:42;7.63;;;6.00;;
8104;SDS011;4095;48.942;9.104;2023-09-07T01:09:14;7.07;;;5.90;;
8104;SDS011;4095;48.942;9.104;2023-09-07T01:11:44;5.83;;;5.23;;
8104;SDS011;4095;48.942;9.104;2023-09-07T01:14:09;5.53;;;4.93;;
8104;SDS011;4095;48.942;9.104;2023-09-07T01:16:35;5.73;;;5.20;;
8104;SDS011;4095;48.942;9.104;2023-09-07T01:19:03;6.00;;;5.40;;
8104;SDS011;4095;48.942;9.104;2023-09-07T01:21:35;6.67;;;5.27;;
8104;SDS011;4095;48.942;9.104;2023-09-07T01:24:08;6.23;;;5.43;;
8104;SDS011;4095;48.942;9.104;2023-09-07T01:26:35;6.70;;;5.00;;
8104;SDS011;4095;48.942;9.104;2023-09-07T01:29:04;5.87;;;5.10;;
8104;SDS011;4095;48.942;9.104;2023-09-07T01:31:30;6.10;;;5.40;;
8104;SDS011;4095;48.942;9.104;2023-09-07T01:33:55;7.17;;;6.07;;
8104;SDS011;4095;48.942;9.104;2023-09-07T01:36:21;5.97;;;5.27;;
8104;SDS011;4095;48.942;9.104;2023-09-07T01:38:46;6.10;;;5.50;;
8104;SDS011;4095;48.942;9.104;2023-09-07T01:41:12;6.40;;;5.80;;
8104;SDS011;4095;48.942;9.104;2023-09-07T01:43:38;5.93;;;5.37;;
8104;SDS011;4095;48.942;9.104;2023-09-07T01:46:04;6.23;;;5.63;;
8104;SDS011;4095;48.942;9.104;2023-09-07T01:48:29;7.00;;;6.13;;
8104;SDS011;4095;48.942;9.104;2023-09-07T01:50:55;6.47;;;5.87;;
8104;SDS011;4095;48.942;9.104;2023-09-07T01:53:21;6.47;;;5.70;;
8104;SDS011;4095;48.942;9.104;2023-09-07T01:55:46;7.07;;;6.37;;
8104;SDS011;4095;48.942;9.104;2023-09-07T01:58:12;6.80;;;6.20;;
8104;SDS011;4095;48.942;9.104;2023-09-07T02:00:38;6.70;;;6.10;;
8104;SDS011;4095;48.942;9.104;2023-09-07T02:03:04;8.23;;;5.90;;
8104;SDS011;4095;48.942;9.104;2023-09-07T02:05:30;7.53;;;6.13;;
8104;SDS011;4095;48.942;9.104;2023-09-07T02:07:57;7.03;;;5.90;;
8104;SDS011;4095;48.942;9.104;2023-09-07T02:10:23;6.83;;;6.13;;
8104;SDS011;4095;48.942;9.104;2023-09-07T02:12:49;7.33;;;5.70;;
8104;SDS011;4095;48.942;9.104;2023-09-07T02:15:14;7.70;;;5.97;;
8104;SDS011;4095;48.942;9.104;2023-09-07T02:17:40;6.50;;;5.87;;
8104;SDS011;4095;48.942;9.104;2023-09-07T02:20:10;6.53;;;5.93;;
8104;SDS011;4095;48.942;9.104;2023-09-07T02:22:37;6.53;;;5.93;;
8104;SDS011;4095;48.942;9.104;2023-09-07T02:25:03;7.50;;;6.00;;
8104;SDS011;4095;48.942;9.104;2023-09-07T02:27:30;6.77;;;6.07;;
8104;SDS011;4095;48.942;9.104;2023-09-07T02:29:56;7.30;;;5.80;;
8104;SDS011;4095;48.942;9.104;2023-09-07T02:32:22;7.77;;;5.87;;
8104;SDS011;4095;48.942;9.104;2023-09-07T02:34:48;7.87;;;5.70;;
8104;SDS011;4095;48.942;9.104;2023-09-07T02:37:13;7.03;;;5.23;;
8104;SDS011;4095;48.942;9.104;2023-09-07T02:39:40;6.80;;;5.47;;
8104;SDS011;4095;48.942;9.104;2023-09-07T02:42:07;7.13;;;5.77;;
8104;SDS011;4095;48.942;9.104;2023-09-07T02:44:32;7.77;;;5.90;;
8104;SDS011;4095;48.942;9.104;2023-09-07T02:46:58;9.10;;;5.80;;
8104;SDS011;4095;48.942;9.104;2023-09-07T02:49:23;6.00;;;5.40;;
8104;SDS011;4095;48.942;9.104;2023-09-07T02:51:49;7.23;;;5.53;;
8104;SDS011;4095;48.942;9.104;2023-09-07T02:54:14;6.70;;;5.67;;
8104;SDS011;4095;48.942;9.104;2023-09-07T02:56:40;7.00;;;6.10;;
8104;SDS011;4095;48.942;9.104;2023-09-07T02:59:05;6.63;;;5.80;;
8104;SDS011;4095;48.942;9.104;2023-09-07T03:01:31;6.23;;;5.63;;
8104;SDS011;4095;48.942;9.104;2023-09-07T03:03:56;6.37;;;5.77;;
8104;SDS011;4095;48.942;9.104;2023-09-07T03:06:22;6.47;;;5.17;;
8104;SDS011;4095;48.942;9.104;2023-09-07T03:08:47;5.60;;;5.10;;
8104;SDS011;4095;48.942;9.104;2023-09-07T03:11:13;6.07;;;5.53;;
8104;SDS011;4095;48.942;9.104;2023-09-07T03:13:38;6.07;;;5.50;;
8104;SDS011;4095;48.942;9.104;2023-09-07T03:16:04;6.97;;;6.03;;
8104;SDS011;4095;48.942;9.104;2023-09-07T03:18:30;6.73;;;6.13;;
8104;SDS011;4095;48.942;9.104;2023-09-07T03:20:58;6.03;;;5.43;;
8104;SDS011;4095;48.942;9.104;2023-09-07T03:23:24;6.70;;;5.90;;
8104;SDS011;4095;48.942;9.104;2023-09-07T03:25:50;6.67;;;5.50;;
8104;SDS011;4095;48.942;9.104;2023-09-07T03:28:15;8.00;;;5.67;;
8104;SDS011;4095;48.942;9.104;2023-09-07T03:30:41;6.93;;;5.83;;
8104;SDS011;4095;48.942;9.104;2023-09-07T03:33:07;7.07;;;5.63;;
8104;SDS011;4095;48.942;9.104;2023-09-07T03:35:32;7.33;;;5.87;;
8104;SDS011;4095;48.942;9.104;2023-09-07T03:37:58;7.80;;;5.73;;
8104;SDS011;4095;48.942;9.104;2023-09-07T03:40:23;7.93;;;5.97;;
8104;SDS011;4095;48.942;9.104;2023-09-07T03:42:49;6.27;;;5.47;;
8104;SDS011;4095;48.942;9.104;2023-09-07T03:45:15;6.20;;;5.60;;
8104;SDS011;4095;48.942;9.104;2023-09-07T03:47:41;7.07;;;5.77;;
8104;SDS011;4095;48.942;9.104;2023-09-07T03:50:07;5.83;;;5.23;;
8104;SDS011;4095;48.942;9.104;2023-09-07T03:52:32;6.33;;;5.73;;
8104;SDS011;4095;48.942;9.104;2023-09-07T03:54:59;6.67;;;5.40;;
8104;SDS011;4095;48.942;9.104;2023-09-07T03:57:25;6.10;;;5.50;;
8104;SDS011;4095;48.942;9.104;2023-09-07T03:59:52;6.53;;;5.83;;
8104;SDS011;4095;48.942;9.104;2023-09-07T04:02:18;7.77;;;6.10;;
8104;SDS011;4095;48.942;9.104;2023-09-07T04:04:43;6.60;;;6.00;;
8104;SDS011;4095;48.942;9.104;2023-09-07T04:07:16;7.63;;;5.77;;
8104;SDS011;4095;48.942;9.104;2023-09-07T04:09:42;8.93;;;5.90;;
8104;SDS011;4095;48.942;9.104;2023-09-07T04:12:09;7.93;;;6.30;;
8104;SDS011;4095;48.942;9.104;2023-09-07T04:14:34;6.63;;;5.50;;
8104;SDS011;4095;48.942;9.104;2023-09-07T04:17:00;8.80;;;5.77;;
8104;SDS011;4095;48.942;9.104;2023-09-07T04:19:26;6.93;;;5.47;;
8104;SDS011;4095;48.942;9.104;2023-09-07T04:21:51;6.13;;;5.43;;
8104;SDS011;4095;48.942;9.104;2023-09-07T04:24:17;8.20;;;6.17;;
8104;SDS011;4095;48.942;9.104;2023-09-07T04:26:42;6.40;;;5.47;;
8104;SDS011;4095;48.942;9.104;2023-09-07T04:29:08;7.83;;;5.53;;
8104;SDS011;4095;48.942;9.104;2023-09-07T04:31:34;6.47;;;5.60;;
8104;SDS011;4095;48.942;9.104;2023-09-07T04:33:59;6.63;;;5.20;;
8104;SDS011;4095;48.942;9.104;2023-09-07T04:36:25;6.20;;;5.43;;
8104;SDS011;4095;48.942;9.104;2023-09-07T04:38:51;5.73;;;5.20;;
8104;SDS011;4095;48.942;9.104;2023-09-07T04:41:16;6.77;;;5.93;;
8104;SDS011;4095;48.942;9.104;2023-09-07T04:43:42;6.77;;;5.90;;
8104;SDS011;4095;48.942;9.104;2023-09-07T04:46:08;5.93;;;5.33;;
8104;SDS011;4095;48.942;9.104;2023-09-07T04:48:35;6.43;;;5.40;;
8104;SDS011;4095;48.942;9.104;2023-09-07T04:51:01;6.97;;;5.90;;
8104;SDS011;4095;48.942;9.104;2023-09-07T04:53:28;6.50;;;5.20;;
8104;SDS011;4095;48.942;9.104;2023-09-07T04:55:55;5.93;;;5.33;;
8104;SDS011;4095;48.942;9.104;2023-09-07T04:58:21;8.07;;;5.83;;
8104;SDS011;4095;48.942;9.104;2023-09-07T05:00:47;7.57;;;5.90;;
8104;SDS011;4095;48.942;9.104;2023-09-07T05:03:13;7.50;;;5.47;;
8104;SDS011;4095;48.942;9.104;2023-09-07T05:05:39;7.47;;;6.07;;
8104;SDS011;4095;48.942;9.104;2023-09-07T05:08:06;6.90;;;5.70;;
8104;SDS011;4095;48.942;9.104;2023-09-07T05:10:35;7.53;;;6.10;;
8104;SDS011;4095;48.942;9.104;2023-09-07T05:13:00;6.03;;;5.43;;
8104;SDS011;4095;48.942;9.104;2023-09-07T05:15:26;7.33;;;5.40;;
8104;SDS011;4095;48.942;9.104;2023-09-07T05:17:52;8.33;;;5.33;;
8104;SDS011;4095;48.942;9.104;2023-09-07T05:20:18;5.97;;;5.37;;
8104;SDS011;4095;48.942;9.104;2023-09-07T05:22:43;6.10;;;5.50;;
8104;SDS011;4095;48.942;9.104;2023-09-07T05:25:09;7.23;;;5.77;;
8104;SDS011;4095;48.942;9.104;2023-09-07T05:27:35;7.67;;;5.50;;
8104;SDS011;4095;48.942;9.104;2023-09-07T05:30:01;7.67;;;5.80;;
8104;SDS011;4095;48.942;9.104;2023-09-07T05:32:27;7.27;;;5.93;;
8104;SDS011;4095;48.942;9.104;2023-09-07T05:34:53;8.23;;;6.23;;
8104;SDS011;4095;48.942;9.104;2023-09-07T05:37:18;6.63;;;5.60;;
8104;SDS011;4095;48.942;9.104;2023-09-07T05:39:44;6.20;;;5.60;;
8104;SDS011;4095;48.942;9.104;2023-09-07T05:42:09;6.30;;;5.67;;
8104;SDS011;4095;48.942;9.104;2023-09-07T05:44:35;7.13;;;5.63;;
8104;SDS011;4095;48.942;9.104;2023-09-07T05:47:01;6.70;;;5.87;;
8104;SDS011;4095;48.942;9.104;2023-09-07T05:49:27;7.40;;;5.67;;
8104;SDS011;4095;48.942;9.104;2023-09-07T05:51:53;8.43;;;6.17;;
8104;SDS011;4095;48.942;9.104;2023-09-07T05:54:18;6.67;;;5.97;;
8104;SDS011;4095;48.942;9.104;2023-09-07T05:56:44;7.33;;;5.90;;
8104;SDS011;4095;48.942;9.104;2023-09-07T05:59:09;8.33;;;7.30;;
8104;SDS011;4095;48.942;9.104;2023-09-07T06:01:35;11.27;;;7.80;;
8104;SDS011;4095;48.942;9.104;2023-09-07T06:04:01;8.53;;;7.10;;
8104;SDS011;4095;48.942;9.104;2023-09-07T06:06:26;8.70;;;6.83;;
8104;SDS011;4095;48.942;9.104;2023-09-07T06:08:52;7.33;;;6.63;;
8104;SDS011;4095;48.942;9.104;2023-09-07T06:11:18;8.63;;;6.07;;
8104;SDS011;4095;48.942;9.104;2023-09-07T06:13:43;6.40;;;5.37;;
8104;SDS011;4095;48.942;9.104;2023-09-07T06:16:09;6.83;;;6.13;;
8104;SDS011;4095;48.942;9.104;2023-09-07T06:18:34;7.90;;;6.40;;
8104;SDS011;4095;48.942;9.104;2023-09-07T06:21:00;8.60;;;7.07;;
8104;SDS011;4095;48.942;9.104;2023-09-07T06:23:25;8.47;;;6.90;;
8104;SDS011;4095;48.942;9.104;2023-09-07T06:25:51;7.07;;;6.37;;
8104;SDS011;4095;48.942;9.104;2023-09-07T06:28:16;9.13;;;6.43;;
8104;SDS011;4095;48.942;9.104;2023-09-07T06:30:42;7.10;;;6.40;;
8104;SDS011;4095;48.942;9.104;2023-09-07T06:33:07;8.30;;;6.73;;
8104;SDS011;4095;48.942;9.104;2023-09-07T06:35:33;7.27;;;6.63;;
8104;SDS011;4095;48.942;9.104;2023-09-07T06:37:58;8.37;;;6.83;;
8104;SDS011;4095;48.942;9.104;2023-09-07T06:40:24;7.90;;;7.10;;
8104;SDS011;4095;48.942;9.104;2023-09-07T06:42:51;8.33;;;6.70;;
8104;SDS011;4095;48.942;9.104;2023-09-07T06:45:17;8.40;;;6.27;;
8104;SDS011;4095;48.942;9.104;2023-09-07T06:47:43;7.50;;;6.73;;
8104;SDS011;4095;48.942;9.104;2023-09-07T06:50:08;8.53;;;7.03;;
8104;SDS011;4095;48.942;9.104;2023-09-07T06:52:35;6.17;;;5.67;;
8104;SDS011;4095;48.942;9.104;2023-09-07T06:55:00;6.90;;;5.53;;
8104;SDS011;4095;48.942;9.104;2023-09-07T06:57:26;7.07;;;5.60;;
8104;SDS011;4095;48.942;9.104;2023-09-07T06:59:52;8.20;;;5.73;;
8104;SDS011;4095;48.942;9.104;2023-09-07T07:02:17;5.43;;;4.90;;
8104;SDS011;4095;48.942;9.104;2023-09-07T07:04:43;6.43;;;5.40;;
8104;SDS011;4095;48.942;9.104;2023-09-07T07:07:10;7.03;;;5.57;;
8104;SDS011;4095;48.942;9.104;2023-09-07T07:09:36;7.27;;;6.40;;
8104;SDS011;4095;48.942;9.104;2023-09-07T07:12:03;8.83;;;5.70;;
8104;SDS011;4095;48.942;9.104;2023-09-07T07:14:29;6.23;;;5.43;;
8104;SDS011;4095;48.942;9.104;2023-09-07T07:16:54;6.23;;;5.57;;
8104;SDS011;4095;48.942;9.104;2023-09-07T07:19:20;5.47;;;4.90;;
8104;SDS011;4095;48.942;9.104;2023-09-07T07:21:45;5.47;;;4.97;;
8104;SDS011;4095;48.942;9.104;2023-09-07T07:24:11;5.90;;;5.40;;
8104;SDS011;4095;48.942;9.104;2023-09-07T07:26:36;5.87;;;5.20;;
8104;SDS011;4095;48.942;9.104;2023-09-07T07:29:02;5.30;;;4.80;;
8104;SDS011;4095;48.942;9.104;2023-09-07T07:31:28;6.20;;;5.00;;
8104;SDS011;4095;48.942;9.104;2023-09-07T07:33:54;7.10;;;5.10;;
8104;SDS011;4095;48.942;9.104;2023-09-07T07:36:20;6.40;;;4.80;;
8104;SDS011;4095;48.942;9.104;2023-09-07T07:38:46;6.57;;;5.13;;
8104;SDS011;4095;48.942;9.104;2023-09-07T07:41:11;6.37;;;4.87;;
8104;SDS011;4095;48.942;9.104;2023-09-07T07:43:37;7.07;;;5.20;;
8104;SDS011;4095;48.942;9.104;2023-09-07T07:46:03;6.57;;;4.97;;
8104;SDS011;4095;48.942;9.104;2023-09-07T07:48:28;5.67;;;4.73;;
8104;SDS011;4095;48.942;9.104;2023-09-07T07:50:54;7.27;;;4.40;;
8104;SDS011;4095;48.942;9.104;2023-09-07T07:53:20;5.40;;;4.80;;
8104;SDS011;4095;48.942;9.104;2023-09-07T07:55:46;5.40;;;4.90;;
8104;SDS011;4095;48.942;9.104;2023-09-07T07:58:13;6.07;;;4.80;;
8104;SDS011;4095;48.942;9.104;2023-09-07T08:00:39;4.80;;;4.20;;
8104;SDS011;4095;48.942;9.104;2023-09-07T08:03:12;5.13;;;4.30;;
8104;SDS011;4095;48.942;9.104;2023-09-07T08:05:38;6.23;;;4.50;;
8104;SDS011;4095;48.942;9.104;2023-09-07T08:08:05;5.50;;;4.17;;
8104;SDS011;4095;48.942;9.104;2023-09-07T08:10:34;5.73;;;4.20;;
8104;SDS011;4095;48.942;9.104;2023-09-07T08:13:01;5.00;;;4.27;;
8104;SDS011;4095;48.942;9.104;2023-09-07T08:15:28;4.60;;;4.20;;
8104;SDS011;4095;48.942;9.104;2023-09-07T08:17:53;5.00;;;4.30;;
8104;SDS011;4095;48.942;9.104;2023-09-07T08:20:19;4.80;;;3.80;;
8104;SDS011;4095;48.942;9.104;2023-09-07T08:22:45;4.40;;;4.00;;
8104;SDS011;4095;48.942;9.104;2023-09-07T08:25:11;4.97;;;4.43;;
8104;SDS011;4095;48.942;9.104;2023-09-07T08:27:43;6.17;;;4.23;;
8104;SDS011;4095;48.942;9.104;2023-09-07T08:30:11;5.53;;;4.03;;
8104;SDS011;4095;48.942;9.104;2023-09-07T08:32:38;5.67;;;4.60;;
8104;SDS011;4095;48.942;9.104;2023-09-07T08:35:04;4.53;;;4.10;;
8104;SDS011;4095;48.942;9.104;2023-09-07T08:37:32;5.00;;;4.40;;
8104;SDS011;4095;48.942;9.104;2023-09-07T08:39:58;4.75;;;4.30;;
8104;SDS011;4095;48.942;9.104;2023-09-07T08:42:24;4.40;;;4.00;;
8104;SDS011;4095;48.942;9.104;2023-09-07T08:44:50;5.43;;;4.20;;
8104;SDS011;4095;48.942;9.104;2023-09-07T08:47:19;4.55;;;4.15;;
8104;SDS011;4095;48.942;9.104;2023-09-07T08:49:45;5.43;;;4.32;;
8104;SDS011;4095;48.942;9.104;2023-09-07T08:52:12;5.43;;;4.07;;
8104;SDS011;4095;48.942;9.104;2023-09-07T08:54:40;4.65;;;4.22;;
8104;SDS011;4095;48.942;9.104;2023-09-07T08:57:07;5.95;;;4.43;;
8104;SDS011;4095;48.942;9.104;2023-09-07T08:59:35;5.78;;;4.60;;
8104;SDS011;4095;48.942;9.104;2023-09-07T09:02:01;4.90;;;4.38;;
8104;SDS011;4095;48.942;9.104;2023-09-07T09:04:29;4.47;;;4.07;;
8104;SDS011;4095;48.942;9.104;2023-09-07T09:06:55;5.57;;;4.60;;
8104;SDS011;4095;48.942;9.104;2023-09-07T09:09:21;6.20;;;4.43;;
8104;SDS011;4095;48.942;9.104;2023-09-07T09:11:49;5.47;;;4.32;;
8104;SDS011;4095;48.942;9.104;2023-09-07T09:14:16;6.55;;;4.60;;
8104;SDS011;4095;48.942;9.104;2023-09-07T09:16:48;5.90;;;5.03;;
8104;SDS011;4095;48.942;9.104;2023-09-07T09:19:15;5.68;;;4.53;;
8104;SDS011;4095;48.942;9.104;2023-09-07T09:21:41;6.40;;;4.32;;
8104;SDS011;4095;48.942;9.104;2023-09-07T09:24:09;4.80;;;4.32;;
8104;SDS011;4095;48.942;9.104;2023-09-07T09:26:38;4.55;;;4.15;;
8104;SDS011;4095;48.942;9.104;2023-09-07T09:29:04;5.07;;;4.03;;
8104;SDS011;4095;48.942;9.104;2023-09-07T09:31:30;7.50;;;4.72;;
8104;SDS011;4095;48.942;9.104;2023-09-07T09:33:56;6.18;;;4.70;;
8104;SDS011;4095;48.942;9.104;2023-09-07T09:36:21;4.85;;;4.35;;
8104;SDS011;4095;48.942;9.104;2023-09-07T09:38:48;5.68;;;4.05;;
8104;SDS011;4095;48.942;9.104;2023-09-07T09:41:15;5.88;;;4.10;;
8104;SDS011;4095;48.942;9.104;2023-09-07T09:43:45;5.15;;;4.20;;
8104;SDS011;4095;48.942;9.104;2023-09-07T09:46:14;5.72;;;4.20;;
8104;SDS011;4095;48.942;9.104;2023-09-07T09:48:40;4.40;;;4.00;;
8104;SDS011;4095;48.942;9.104;2023-09-07T09:51:06;4.45;;;3.95;;
8104;SDS011;4095;48.942;9.104;2023-09-07T09:53:32;5.80;;;3.78;;
8104;SDS011;4095;48.942;9.104;2023-09-07T09:55:58;6.00;;;4.20;;
8104;SDS011;4095;48.942;9.104;2023-09-07T09:58:23;4.53;;;4.13;;
8104;SDS011;4095;48.942;9.104;2023-09-07T10:00:50;3.72;;;3.35;;
8104;SDS011;4095;48.942;9.104;2023-09-07T10:03:22;4.30;;;3.90;;
8104;SDS011;4095;48.942;9.104;2023-09-07T10:05:49;5.18;;;4.00;;
8104;SDS011;4095;48.942;9.104;2023-09-07T10:08:16;4.13;;;3.70;;
8104;SDS011;4095;48.942;9.104;2023-09-07T10:10:45;4.97;;;4.30;;
8104;SDS011;4095;48.942;9.104;2023-09-07T10:13:15;4.00;;;3.60;;
8104;SDS011;4095;48.942;9.104;2023-09-07T10:15:59;5.95;;;4.10;;
8104;SDS011;4095;48.942;9.104;2023-09-07T10:18:35;4.10;;;3.67;;
8104;SDS011;4095;48.942;9.104;2023-09-07T10:21:02;5.82;;;3.70;;
8104;SDS011;4095;48.942;9.104;2023-09-07T10:23:35;4.93;;;3.30;;
8104;SDS011;4095;48.942;9.104;2023-09-07T10:26:02;3.78;;;3.28;;
8104;SDS011;4095;48.942;9.104;2023-09-07T10:28:31;3.28;;;2.92;;
8104;SDS011;4095;48.942;9.104;2023-09-07T10:30:58;4.40;;;3.22;;
8104;SDS011;4095;48.942;9.104;2023-09-07T10:33:24;3.35;;;2.90;;
8104;SDS011;4095;48.942;9.104;2023-09-07T10:35:49;3.10;;;2.70;;
8104;SDS011;4095;48.942;9.104;2023-09-07T10:38:15;3.45;;;3.15;;
8104;SDS011;4095;48.942;9.104;2023-09-07T10:40:41;4.65;;;2.97;;
8104;SDS011;4095;48.942;9.104;2023-09-07T10:43:10;3.58;;;3.15;;
8104;SDS011;4095;48.942;9.104;2023-09-07T10:45:35;4.05;;;2.90;;
8104;SDS011;4095;48.942;9.104;2023-09-07T10:48:02;5.05;;;2.80;;
8104;SDS011;4095;48.942;9.104;2023-09-07T10:50:29;3.33;;;3.03;;
8104;SDS011;4095;48.942;9.104;2023-09-07T10:52:54;4.05;;;3.00;;
8104;SDS011;4095;48.942;9.104;2023-09-07T10:55:20;2.70;;;2.50;;
8104;SDS011;4095;48.942;9.104;2023-09-07T10:57:46;3.42;;;2.95;;
8104;SDS011;4095;48.942;9.104;2023-09-07T11:00:13;4.10;;;2.80;;
8104;SDS011;4095;48.942;9.104;2023-09-07T11:02:43;2.80;;;2.47;;
8104;SDS011;4095;48.942;9.104;2023-09-07T11:05:08;2.72;;;2.50;;
8104;SDS011;4095;48.942;9.104;2023-09-07T11:07:35;3.00;;;2.70;;
8104;SDS011;4095;48.942;9.104;2023-09-07T11:10:04;3.38;;;2.83;;
8104;SDS011;4095;48.942;9.104;2023-09-07T11:12:35;3.28;;;2.92;;
8104;SDS011;4095;48.942;9.104;2023-09-07T11:15:07;4.00;;;3.00;;
8104;SDS011;4095;48.942;9.104;2023-09-07T11:17:36;4.10;;;2.70;;
8104;SDS011;4095;48.942;9.104;2023-09-07T11:20:03;3.25;;;2.33;;
8104;SDS011;4095;48.942;9.104;2023-09-07T11:22:31;4.15;;;2.53;;
8104;SDS011;4095;48.942;9.104;2023-09-07T11:24:58;3.65;;;2.53;;
8104;SDS011;4095;48.942;9.104;2023-09-07T11:27:28;3.60;;;2.60;;
8104;SDS011;4095;48.942;9.104;2023-09-07T11:29:55;3.55;;;2.20;;
8104;SDS011;4095;48.942;9.104;2023-09-07T11:32:22;4.13;;;2.60;;
8104;SDS011;4095;48.942;9.104;2023-09-07T11:34:49;2.97;;;2.10;;
8104;SDS011;4095;48.942;9.104;2023-09-07T11:37:16;3.03;;;2.22;;
8104;SDS011;4095;48.942;9.104;2023-09-07T11:39:42;2.65;;;2.40;;
8104;SDS011;4095;48.942;9.104;2023-09-07T11:42:08;2.95;;;2.40;;
8104;SDS011;4095;48.942;9.104;2023-09-07T11:44:33;3.92;;;2.45;;
8104;SDS011;4095;48.942;9.104;2023-09-07T11:46:59;2.58;;;2.38;;
8104;SDS011;4095;48.942;9.104;2023-09-07T11:49:24;3.72;;;2.47;;
8104;SDS011;4095;48.942;9.104;2023-09-07T11:51:50;4.28;;;2.53;;
8104;SDS011;4095;48.942;9.104;2023-09-07T11:54:15;2.50;;;2.30;;
8104;SDS011;4095;48.942;9.104;2023-09-07T11:56:41;4.13;;;2.50;;
8104;SDS011;4095;48.942;9.104;2023-09-07T11:59:08;2.92;;;2.63;;
8104;SDS011;4095;48.942;9.104;2023-09-07T12:01:34;2.88;;;2.60;;
8104;SDS011;4095;48.942;9.104;2023-09-07T12:04:00;5.55;;;3.08;;
8104;SDS011;4095;48.942;9.104;2023-09-07T12:06:25;2.78;;;2.53;;
8104;SDS011;4095;48.942;9.104;2023-09-07T12:09:01;3.85;;;2.58;;
8104;SDS011;4095;48.942;9.104;2023-09-07T12:11:28;2.88;;;2.47;;
8104;SDS011;4095;48.942;9.104;2023-09-07T12:13:55;2.83;;;2.38;;
8104;SDS011;4095;48.942;9.104;2023-09-07T12:16:21;4.28;;;2.88;;
8104;SDS011;4095;48.942;9.104;2023-09-07T12:18:46;3.92;;;2.47;;
8104;SDS011;4095;48.942;9.104;2023-09-07T12:21:12;3.00;;;2.70;;
8104;SDS011;4095;48.942;9.104;2023-09-07T12:23:38;2.80;;;2.60;;
8104;SDS011;4095;48.942;9.104;2023-09-07T12:26:03;5.05;;;2.78;;
8104;SDS011;4095;48.942;9.104;2023-09-07T12:28:29;4.22;;;2.70;;
8104;SDS011;4095;48.942;9.104;2023-09-07T12:30:59;4.57;;;2.90;;
8104;SDS011;4095;48.942;9.104;2023-09-07T12:33:25;3.00;;;2.65;;
8104;SDS011;4095;48.942;9.104;2023-09-07T12:35:50;2.90;;;2.60;;
8104;SDS011;4095;48.942;9.104;2023-09-07T12:38:16;3.10;;;2.70;;
8104;SDS011;4095;48.942;9.104;2023-09-07T12:40:49;4.45;;;2.38;;
8104;SDS011;4095;48.942;9.104;2023-09-07T12:43:15;2.67;;;2.42;;
8104;SDS011;4095;48.942;9.104;2023-09-07T12:45:40;3.60;;;2.45;;
8104;SDS011;4095;48.942;9.104;2023-09-07T12:48:06;3.60;;;2.50;;
8104;SDS011;4095;48.942;9.104;2023-09-07T12:50:32;2.95;;;2.67;;
8104;SDS011;4095;48.942;9.104;2023-09-07T12:52:57;3.53;;;2.90;;
8104;SDS011;4095;48.942;9.104;2023-09-07T12:55:23;3.50;;;2.60;;
8104;SDS011;4095;48.942;9.104;2023-09-07T12:57:49;8.63;;;3.20;;
8104;SDS011;4095;48.942;9.104;2023-09-07T13:00:15;3.10;;;2.80;;
8104;SDS011;4095;48.942;9.104;2023-09-07T13:02:41;3.55;;;2.97;;
8104;SDS011;4095;48.942;9.104;2023-09-07T13:05:07;4.68;;;3.10;;
8104;SDS011;4095;48.942;9.104;2023-09-07T13:07:33;6.35;;;3.28;;
8104;SDS011;4095;48.942;9.104;2023-09-07T13:10:00;3.03;;;2.72;;
8104;SDS011;4095;48.942;9.104;2023-09-07T13:12:29;2.90;;;2.60;;
8104;SDS011;4095;48.942;9.104;2023-09-07T13:14:58;3.08;;;2.63;;
8104;SDS011;4095;48.942;9.104;2023-09-07T13:17:23;4.10;;;2.90;;
8104;SDS011;4095;48.942;9.104;2023-09-07T13:19:49;4.05;;;2.75;;
8104;SDS011;4095;48.942;9.104;2023-09-07T13:22:14;3.78;;;2.70;;
8104;SDS011;4095;48.942;9.104;2023-09-07T13:24:40;5.15;;;3.05;;
8104;SDS011;4095;48.942;9.104;2023-09-07T13:27:06;4.28;;;3.00;;
8104;SDS011;4095;48.942;9.104;2023-09-07T13:29:32;4.40;;;2.90;;
8104;SDS011;4095;48.942;9.104;2023-09-07T13:31:57;3.83;;;2.95;;
8104;SDS011;4095;48.942;9.104;2023-09-07T13:34:24;3.20;;;2.90;;
8104;SDS011;4095;48.942;9.104;2023-09-07T13:36:49;3.50;;;2.95;;
8104;SDS011;4095;48.942;9.104;2023-09-07T13:39:15;2.88;;;2.65;;
8104;SDS011;4095;48.942;9.104;2023-09-07T13:41:40;3.22;;;2.92;;
8104;SDS011;4095;48.942;9.104;2023-09-07T13:44:06;3.53;;;3.10;;
8104;SDS011;4095;48.942;9.104;2023-09-07T13:46:32;2.83;;;2.50;;
8104;SDS011;4095;48.942;9.104;2023-09-07T13:48:58;3.13;;;2.83;;
8104;SDS011;4095;48.942;9.104;2023-09-07T13:51:24;4.05;;;3.38;;
8104;SDS011;4095;48.942;9.104;2023-09-07T13:53:50;3.13;;;2.80;;
8104;SDS011;4095;48.942;9.104;2023-09-07T13:56:17;5.55;;;3.05;;
8104;SDS011;4095;48.942;9.104;2023-09-07T13:58:43;5.13;;;3.00;;
8104;SDS011;4095;48.942;9.104;2023-09-07T14:01:09;3.65;;;3.00;;
8104;SDS011;4095;48.942;9.104;2023-09-07T14:03:34;5.43;;;3.25;;
8104;SDS011;4095;48.942;9.104;2023-09-07T14:06:00;4.00;;;3.17;;
8104;SDS011;4095;48.942;9.104;2023-09-07T14:08:27;4.65;;;3.47;;
8104;SDS011;4095;48.942;9.104;2023-09-07T14:10:52;3.67;;;3.08;;
8104;SDS011;4095;48.942;9.104;2023-09-07T14:13:18;3.38;;;3.05;;
8104;SDS011;4095;48.942;9.104;2023-09-07T14:15:43;4.40;;;3.35;;
8104;SDS011;4095;48.942;9.104;2023-09-07T14:18:09;4.88;;;3.05;;
8104;SDS011;4095;48.942;9.104;2023-09-07T14:20:35;3.50;;;3.20;;
8104;SDS011;4095;48.942;9.104;2023-09-07T14:23:01;4.53;;;3.38;;
8104;SDS011;4095;48.942;9.104;2023-09-07T14:25:27;3.80;;;3.13;;
8104;SDS011;4095;48.942;9.104;2023-09-07T14:27:52;3.40;;;2.97;;
8104;SDS011;4095;48.942;9.104;2023-09-07T14:30:18;5.95;;;3.42;;
8104;SDS011;4095;48.942;9.104;2023-09-07T14:32:44;4.68;;;3.15;;
8104;SDS011;4095;48.942;9.104;2023-09-07T14:35:12;3.67;;;3.33;;
8104;SDS011;4095;48.942;9.104;2023-09-07T14:37:37;3.40;;;3.10;;
8104;SDS011;4095;48.942;9.104;2023-09-07T14:40:03;3.47;;;3.05;;
8104;SDS011;4095;48.942;9.104;2023-09-07T14:42:29;3.88;;;3.45;;
8104;SDS011;4095;48.942;9.104;2023-09-07T14:44:55;3.78;;;3.25;;
8104;SDS011;4095;48.942;9.104;2023-09-07T14:47:22;5.07;;;3.50;;
8104;SDS011;4095;48.942;9.104;2023-09-07T14:49:50;3.45;;;3.15;;
8104;SDS011;4095;48.942;9.104;2023-09-07T14:52:16;4.95;;;3.10;;
8104;SDS011;4095;48.942;9.104;2023-09-07T14:54:43;4.65;;;3.30;;
8104;SDS011;4095;48.942;9.104;2023-09-07T14:57:08;4.28;;;3.50;;
8104;SDS011;4095;48.942;9.104;2023-09-07T14:59:34;3.15;;;2.85;;
8104;SDS011;4095;48.942;9.104;2023-09-07T15:01:59;3.38;;;3.08;;
8104;SDS011;4095;48.942;9.104;2023-09-07T15:04:25;4.55;;;3.10;;
8104;SDS011;4095;48.942;9.104;2023-09-07T15:06:51;3.13;;;2.85;;
8104;SDS011;4095;48.942;9.104;2023-09-07T15:09:17;3.50;;;3.20;;